sensor_id;sensor_type;location;lat;lon;timestamp;pressure;altitude;pressure_sealevel;temperature;humidity
25232;BME280;13176;51.140;6.290;2022-08-19T00:01:28;100555.97;;;23.81;60.44
25232;BME280;13176;51.140;6.290;2022-08-19T00:04:00;100523.13;;;23.80;59.78
25232;BME280;13176;51.140;6.290;2022-08-19T00:06:28;100552.88;;;23.87;60.26
25232;BME280;13176;51.140;6.290;2022-08-19T00:08:56;100569.63;;;23.89;60.41
25232;BME280;13176;51.140;6.290;2022-08-19T00:11:24;100642.97;;;24.31;60.34
25232;BME280;13176;51.140;6.290;2022-08-19T00:13:55;100554.66;;;23.74;60.37
25232;BME280;13176;51.140;6.290;2022-08-19T00:16:24;100499.44;;;23.26;61.28
25232;BME280;13176;51.140;6.290;2022-08-19T00:18:53;100549.53;;;23.46;61.41
25232;BME280;13176;51.140;6.290;2022-08-19T00:21:22;100511.56;;;23.17;62.00
25232;BME280;13176;51.140;6.290;2022-08-19T00:23:49;100584.50;;;23.66;61.73
25232;BME280;13176;51.140;6.290;2022-08-19T00:26:16;100537.16;;;23.45;61.30
25232;BME280;13176;51.140;6.290;2022-08-19T00:28:43;100501.44;;;23.22;61.52
25232;BME280;13176;51.140;6.290;2022-08-19T00:31:09;100602.44;;;23.89;61.69
25232;BME280;13176;51.140;6.290;2022-08-19T00:33:36;100514.78;;;23.35;60.71
25232;BME280;13176;51.140;6.290;2022-08-19T00:36:07;100552.06;;;23.35;61.74
25232;BME280;13176;51.140;6.290;2022-08-19T00:38:36;100518.75;;;23.03;62.28
25232;BME280;13176;51.140;6.290;2022-08-19T00:41:05;100517.03;;;23.02;62.51
25232;BME280;13176;51.140;6.290;2022-08-19T00:43:32;100521.78;;;23.11;62.18
25232;BME280;13176;51.140;6.290;2022-08-19T00:45:58;100487.44;;;22.94;61.95
25232;BME280;13176;51.140;6.290;2022-08-19T00:48:25;100532.78;;;23.19;62.00
25232;BME280;13176;51.140;6.290;2022-08-19T00:50:53;100624.38;;;23.68;62.23
25232;BME280;13176;51.140;6.290;2022-08-19T00:53:24;100633.41;;;23.79;61.66
25232;BME280;13176;51.140;6.290;2022-08-19T00:55:55;100514.94;;;23.07;61.79
25232;BME280;13176;51.140;6.290;2022-08-19T00:58:27;100551.66;;;23.41;61.89
25232;BME280;13176;51.140;6.290;2022-08-19T01:00:55;100469.66;;;22.95;61.50
25232;BME280;13176;51.140;6.290;2022-08-19T01:03:22;100599.88;;;23.63;62.25
25232;BME280;13176;51.140;6.290;2022-08-19T01:05:50;100522.00;;;23.08;62.31
25232;BME280;13176;51.140;6.290;2022-08-19T01:08:19;100575.97;;;23.49;61.94
25232;BME280;13176;51.140;6.290;2022-08-19T01:10:58;100525.44;;;22.96;62.38
25232;BME280;13176;51.140;6.290;2022-08-19T01:13:29;100602.78;;;23.21;63.44
25232;BME280;13176;51.140;6.290;2022-08-19T01:16:16;100550.03;;;22.87;63.25
25232;BME280;13176;51.140;6.290;2022-08-19T01:18:44;100509.25;;;22.60;63.46
25232;BME280;13176;51.140;6.290;2022-08-19T01:21:18;100547.63;;;22.70;63.72
25232;BME280;13176;51.140;6.290;2022-08-19T01:23:47;100472.47;;;22.26;63.37
25232;BME280;13176;51.140;6.290;2022-08-19T01:26:18;100625.38;;;23.28;62.63
25232;BME280;13176;51.140;6.290;2022-08-19T01:28:47;100552.75;;;22.73;62.71
25232;BME280;13176;51.140;6.290;2022-08-19T01:31:18;100616.19;;;23.19;62.92
25232;BME280;13176;51.140;6.290;2022-08-19T01:33:55;100528.63;;;22.62;62.44
25232;BME280;13176;51.140;6.290;2022-08-19T01:36:33;100610.41;;;23.13;63.03
25232;BME280;13176;51.140;6.290;2022-08-19T01:39:03;100575.16;;;22.83;62.84
25232;BME280;13176;51.140;6.290;2022-08-19T01:41:30;100514.53;;;22.48;62.11
25232;BME280;13176;51.140;6.290;2022-08-19T01:43:56;100614.59;;;23.03;62.24
25232;BME280;13176;51.140;6.290;2022-08-19T01:46:44;100483.88;;;22.28;62.48
25232;BME280;13176;51.140;6.290;2022-08-19T01:49:10;100560.38;;;22.65;62.88
25232;BME280;13176;51.140;6.290;2022-08-19T01:51:37;100609.44;;;22.88;62.99
25232;BME280;13176;51.140;6.290;2022-08-19T01:54:06;100563.78;;;22.67;62.85
25232;BME280;13176;51.140;6.290;2022-08-19T01:56:33;100559.88;;;22.46;63.14
25232;BME280;13176;51.140;6.290;2022-08-19T01:59:05;100625.66;;;23.11;62.69
25232;BME280;13176;51.140;6.290;2022-08-19T02:01:33;100582.78;;;22.75;62.86
25232;BME280;13176;51.140;6.290;2022-08-19T02:04:01;100638.84;;;22.86;63.58
25232;BME280;13176;51.140;6.290;2022-08-19T02:06:28;100549.03;;;22.21;64.90
25232;BME280;13176;51.140;6.290;2022-08-19T02:08:55;100481.72;;;21.67;65.88
25232;BME280;13176;51.140;6.290;2022-08-19T02:11:28;100620.03;;;22.35;66.77
25232;BME280;13176;51.140;6.290;2022-08-19T02:13:58;100433.13;;;21.37;65.67
25232;BME280;13176;51.140;6.290;2022-08-19T02:16:24;100439.41;;;21.64;64.66
25232;BME280;13176;51.140;6.290;2022-08-19T02:18:51;100522.81;;;22.03;64.07
25232;BME280;13176;51.140;6.290;2022-08-19T02:21:20;100635.81;;;22.78;64.43
25232;BME280;13176;51.140;6.290;2022-08-19T02:23:47;100577.34;;;22.36;64.04
25232;BME280;13176;51.140;6.290;2022-08-19T02:26:14;100628.97;;;22.74;64.11
25232;BME280;13176;51.140;6.290;2022-08-19T02:28:44;100626.81;;;22.67;65.17
25232;BME280;13176;51.140;6.290;2022-08-19T02:31:35;100633.56;;;22.58;65.92
25232;BME280;13176;51.140;6.290;2022-08-19T02:34:25;100634.53;;;22.43;66.30
25232;BME280;13176;51.140;6.290;2022-08-19T02:37:44;100515.13;;;21.85;65.39
25232;BME280;13176;51.140;6.290;2022-08-19T02:43:45;100518.72;;;21.70;67.41
25232;BME280;13176;51.140;6.290;2022-08-19T02:46:54;100545.56;;;21.79;68.32
25232;BME280;13176;51.140;6.290;2022-08-19T02:50:43;100646.66;;;22.33;69.41
25232;BME280;13176;51.140;6.290;2022-08-19T02:54:09;100526.66;;;21.56;69.85
25232;BME280;13176;51.140;6.290;2022-08-19T02:56:58;100460.03;;;21.17;70.58
25232;BME280;13176;51.140;6.290;2022-08-19T03:00:00;100640.03;;;22.12;71.77
25232;BME280;13176;51.140;6.290;2022-08-19T03:02:59;100588.00;;;21.81;72.48
25232;BME280;13176;51.140;6.290;2022-08-19T03:06:06;100566.72;;;21.67;73.32
25232;BME280;13176;51.140;6.290;2022-08-19T03:08:47;100599.00;;;21.88;73.34
25232;BME280;13176;51.140;6.290;2022-08-19T03:11:27;100571.50;;;21.76;74.21
25232;BME280;13176;51.140;6.290;2022-08-19T03:13:55;100634.34;;;22.18;74.04
25232;BME280;13176;51.140;6.290;2022-08-19T03:16:24;100653.13;;;22.29;74.87
25232;BME280;13176;51.140;6.290;2022-08-19T03:18:52;100625.72;;;22.01;76.16
25232;BME280;13176;51.140;6.290;2022-08-19T03:21:22;100565.78;;;21.68;75.97
25232;BME280;13176;51.140;6.290;2022-08-19T03:23:53;100544.84;;;21.63;76.13
25232;BME280;13176;51.140;6.290;2022-08-19T03:26:20;100568.25;;;21.71;76.49
25232;BME280;13176;51.140;6.290;2022-08-19T03:28:46;100526.84;;;21.53;76.76
25232;BME280;13176;51.140;6.290;2022-08-19T03:31:25;100646.09;;;22.28;76.77
25232;BME280;13176;51.140;6.290;2022-08-19T03:34:19;100442.03;;;21.08;77.21
25232;BME280;13176;51.140;6.290;2022-08-19T03:36:46;100646.28;;;22.25;77.18
25232;BME280;13176;51.140;6.290;2022-08-19T03:39:14;100561.41;;;21.67;77.31
25232;BME280;13176;51.140;6.290;2022-08-19T03:41:43;100575.84;;;21.90;77.08
25232;BME280;13176;51.140;6.290;2022-08-19T03:44:19;100562.38;;;21.80;77.05
25232;BME280;13176;51.140;6.290;2022-08-19T03:46:49;100654.00;;;22.30;77.40
25232;BME280;13176;51.140;6.290;2022-08-19T03:49:17;100583.81;;;21.90;77.44
25232;BME280;13176;51.140;6.290;2022-08-19T03:51:46;100652.78;;;22.35;77.50
25232;BME280;13176;51.140;6.290;2022-08-19T03:54:14;100651.06;;;22.34;77.34
25232;BME280;13176;51.140;6.290;2022-08-19T03:56:42;100594.44;;;21.90;76.94
25232;BME280;13176;51.140;6.290;2022-08-19T03:59:14;100586.66;;;21.88;76.75
25232;BME280;13176;51.140;6.290;2022-08-19T04:01:42;100581.34;;;21.88;76.76
25232;BME280;13176;51.140;6.290;2022-08-19T04:04:09;100581.25;;;21.75;76.77
25232;BME280;13176;51.140;6.290;2022-08-19T04:06:37;100575.28;;;21.72;76.63
25232;BME280;13176;51.140;6.290;2022-08-19T04:09:07;100578.34;;;21.80;76.59
25232;BME280;13176;51.140;6.290;2022-08-19T04:11:38;100549.78;;;21.54;77.25
25232;BME280;13176;51.140;6.290;2022-08-19T04:14:12;100609.63;;;21.88;77.86
25232;BME280;13176;51.140;6.290;2022-08-19T04:16:40;100613.06;;;21.90;77.86
25232;BME280;13176;51.140;6.290;2022-08-19T04:19:07;100598.25;;;21.73;78.19
25232;BME280;13176;51.140;6.290;2022-08-19T04:21:33;100548.66;;;21.44;77.95
25232;BME280;13176;51.140;6.290;2022-08-19T04:24:00;100580.13;;;21.50;79.13
25232;BME280;13176;51.140;6.290;2022-08-19T04:26:34;100565.41;;;21.60;78.82
25232;BME280;13176;51.140;6.290;2022-08-19T04:29:05;100652.56;;;22.10;78.48
25232;BME280;13176;51.140;6.290;2022-08-19T04:31:37;100585.44;;;21.50;78.76
25232;BME280;13176;51.140;6.290;2022-08-19T04:34:06;100586.66;;;21.60;78.79
25232;BME280;13176;51.140;6.290;2022-08-19T04:36:35;100633.94;;;21.83;78.73
25232;BME280;13176;51.140;6.290;2022-08-19T04:39:08;100669.06;;;22.01;79.15
25232;BME280;13176;51.140;6.290;2022-08-19T04:41:35;100586.13;;;21.53;79.50
25232;BME280;13176;51.140;6.290;2022-08-19T04:44:21;100537.41;;;21.25;79.35
25232;BME280;13176;51.140;6.290;2022-08-19T04:46:48;100604.88;;;21.66;78.99
25232;BME280;13176;51.140;6.290;2022-08-19T04:49:18;100584.50;;;21.51;78.93
25232;BME280;13176;51.140;6.290;2022-08-19T04:51:46;100594.00;;;21.55;79.09
25232;BME280;13176;51.140;6.290;2022-08-19T04:54:15;100571.03;;;21.40;78.66
25232;BME280;13176;51.140;6.290;2022-08-19T04:57:02;100638.88;;;21.75;78.75
25232;BME280;13176;51.140;6.290;2022-08-19T04:59:29;100568.56;;;21.37;78.84
25232;BME280;13176;51.140;6.290;2022-08-19T05:01:56;100609.75;;;21.58;78.84
25232;BME280;13176;51.140;6.290;2022-08-19T05:04:22;100602.44;;;21.47;79.18
25232;BME280;13176;51.140;6.290;2022-08-19T05:06:49;100586.03;;;21.41;79.28
25232;BME280;13176;51.140;6.290;2022-08-19T05:09:16;100685.59;;;22.06;79.21
25232;BME280;13176;51.140;6.290;2022-08-19T05:11:43;100619.28;;;21.62;78.90
25232;BME280;13176;51.140;6.290;2022-08-19T05:14:11;100691.88;;;22.05;79.37
25232;BME280;13176;51.140;6.290;2022-08-19T05:16:39;100651.97;;;21.78;78.98
25232;BME280;13176;51.140;6.290;2022-08-19T05:19:06;100648.56;;;21.76;78.83
25232;BME280;13176;51.140;6.290;2022-08-19T05:21:51;100638.69;;;21.78;78.88
25232;BME280;13176;51.140;6.290;2022-08-19T05:24:36;100704.97;;;22.22;78.10
25232;BME280;13176;51.140;6.290;2022-08-19T05:27:21;100653.78;;;21.91;78.49
25232;BME280;13176;51.140;6.290;2022-08-19T05:29:48;100653.31;;;21.98;77.78
25232;BME280;13176;51.140;6.290;2022-08-19T05:32:14;100616.47;;;21.79;78.01
25232;BME280;13176;51.140;6.290;2022-08-19T05:34:41;100692.25;;;22.27;77.83
25232;BME280;13176;51.140;6.290;2022-08-19T05:37:08;100704.03;;;22.23;77.82
25232;BME280;13176;51.140;6.290;2022-08-19T05:39:36;100701.69;;;22.33;77.90
25232;BME280;13176;51.140;6.290;2022-08-19T05:42:06;100700.09;;;22.44;77.15
25232;BME280;13176;51.140;6.290;2022-08-19T05:44:37;100698.97;;;22.48;76.73
25232;BME280;13176;51.140;6.290;2022-08-19T05:47:06;100694.97;;;22.41;76.80
25232;BME280;13176;51.140;6.290;2022-08-19T05:49:35;100705.03;;;22.50;76.76
25232;BME280;13176;51.140;6.290;2022-08-19T05:52:04;100662.06;;;22.14;77.02
25232;BME280;13176;51.140;6.290;2022-08-19T05:54:32;100676.13;;;22.30;77.09
25232;BME280;13176;51.140;6.290;2022-08-19T05:57:00;100705.22;;;22.47;77.21
25232;BME280;13176;51.140;6.290;2022-08-19T05:59:27;100636.13;;;22.04;77.24
25232;BME280;13176;51.140;6.290;2022-08-19T06:01:56;100703.53;;;22.46;77.08
25232;BME280;13176;51.140;6.290;2022-08-19T06:04:23;100702.66;;;22.46;77.46
25232;BME280;13176;51.140;6.290;2022-08-19T06:06:51;100669.47;;;22.23;78.04
25232;BME280;13176;51.140;6.290;2022-08-19T06:09:19;100650.88;;;22.09;77.87
25232;BME280;13176;51.140;6.290;2022-08-19T06:11:48;100713.97;;;22.49;77.88
25232;BME280;13176;51.140;6.290;2022-08-19T06:14:22;100700.28;;;22.41;76.97
25232;BME280;13176;51.140;6.290;2022-08-19T06:16:52;100650.94;;;22.08;77.41
25232;BME280;13176;51.140;6.290;2022-08-19T06:19:21;100690.97;;;22.34;77.42
25232;BME280;13176;51.140;6.290;2022-08-19T06:21:50;100702.00;;;22.42;77.32
25232;BME280;13176;51.140;6.290;2022-08-19T06:24:21;100711.59;;;22.59;77.16
25232;BME280;13176;51.140;6.290;2022-08-19T06:26:50;100723.44;;;22.67;77.07
25232;BME280;13176;51.140;6.290;2022-08-19T06:29:31;100651.78;;;22.22;77.45
25232;BME280;13176;51.140;6.290;2022-08-19T06:32:00;100684.84;;;22.32;77.05
25232;BME280;13176;51.140;6.290;2022-08-19T06:34:29;100723.84;;;22.61;77.70
25232;BME280;13176;51.140;6.290;2022-08-19T06:36:57;100724.78;;;22.74;77.51
25232;BME280;13176;51.140;6.290;2022-08-19T06:39:30;100674.63;;;22.54;77.23
25232;BME280;13176;51.140;6.290;2022-08-19T06:42:00;100722.13;;;22.74;77.50
25232;BME280;13176;51.140;6.290;2022-08-19T06:44:30;100709.19;;;22.68;77.29
25232;BME280;13176;51.140;6.290;2022-08-19T06:47:11;100709.56;;;22.62;76.07
25232;BME280;13176;51.140;6.290;2022-08-19T06:49:40;100717.63;;;22.89;75.03
25232;BME280;13176;51.140;6.290;2022-08-19T06:52:07;100695.88;;;22.82;74.42
25232;BME280;13176;51.140;6.290;2022-08-19T06:54:33;100712.59;;;22.84;74.19
25232;BME280;13176;51.140;6.290;2022-08-19T06:57:20;100706.34;;;22.85;73.93
25232;BME280;13176;51.140;6.290;2022-08-19T06:59:47;100716.94;;;22.99;73.57
25232;BME280;13176;51.140;6.290;2022-08-19T07:02:13;100710.00;;;22.97;72.98
25232;BME280;13176;51.140;6.290;2022-08-19T07:04:40;100726.88;;;22.83;73.07
25232;BME280;13176;51.140;6.290;2022-08-19T07:07:10;100742.81;;;23.11;72.15
25232;BME280;13176;51.140;6.290;2022-08-19T07:09:46;100700.44;;;22.94;71.60
25232;BME280;13176;51.140;6.290;2022-08-19T07:12:24;100717.44;;;22.78;71.39
25232;BME280;13176;51.140;6.290;2022-08-19T07:14:51;100765.44;;;23.04;71.84
25232;BME280;13176;51.140;6.290;2022-08-19T07:17:19;100695.69;;;22.85;71.03
25232;BME280;13176;51.140;6.290;2022-08-19T07:19:46;100708.03;;;22.86;70.72
25232;BME280;13176;51.140;6.290;2022-08-19T07:22:14;100694.16;;;22.81;70.13
25232;BME280;13176;51.140;6.290;2022-08-19T07:24:42;100668.72;;;22.63;70.14
25232;BME280;13176;51.140;6.290;2022-08-19T07:27:17;100764.88;;;22.99;70.94
25232;BME280;13176;51.140;6.290;2022-08-19T07:29:52;100763.72;;;23.03;70.45
25232;BME280;13176;51.140;6.290;2022-08-19T07:32:23;100771.63;;;23.05;70.62
25232;BME280;13176;51.140;6.290;2022-08-19T07:34:52;100770.00;;;23.16;70.64
25232;BME280;13176;51.140;6.290;2022-08-19T07:37:18;100675.47;;;22.69;70.08
25232;BME280;13176;51.140;6.290;2022-08-19T07:39:45;100772.22;;;23.36;69.56
25232;BME280;13176;51.140;6.290;2022-08-19T07:42:12;100671.91;;;22.82;68.74
25232;BME280;13176;51.140;6.290;2022-08-19T07:44:40;100780.44;;;23.59;68.50
25232;BME280;13176;51.140;6.290;2022-08-19T07:47:07;100697.34;;;23.14;67.72
25232;BME280;13176;51.140;6.290;2022-08-19T07:49:54;100717.56;;;22.90;67.85
25232;BME280;13176;51.140;6.290;2022-08-19T07:52:20;100759.94;;;23.21;68.24
25232;BME280;13176;51.140;6.290;2022-08-19T07:54:47;100768.13;;;23.18;68.82
25232;BME280;13176;51.140;6.290;2022-08-19T07:57:13;100728.16;;;23.04;68.39
25232;BME280;13176;51.140;6.290;2022-08-19T07:59:40;100759.88;;;23.35;68.36
25232;BME280;13176;51.140;6.290;2022-08-19T08:02:07;100790.91;;;23.62;67.83
25232;BME280;13176;51.140;6.290;2022-08-19T08:04:34;100729.59;;;23.36;67.50
25232;BME280;13176;51.140;6.290;2022-08-19T08:07:20;100737.34;;;23.53;67.29
25232;BME280;13176;51.140;6.290;2022-08-19T08:10:11;100675.84;;;23.17;66.53
25232;BME280;13176;51.140;6.290;2022-08-19T08:12:50;100720.84;;;23.34;66.38
25232;BME280;13176;51.140;6.290;2022-08-19T08:15:36;100734.38;;;23.57;65.60
25232;BME280;13176;51.140;6.290;2022-08-19T08:18:08;100689.19;;;23.56;65.09
25232;BME280;13176;51.140;6.290;2022-08-19T08:20:34;100786.94;;;24.21;64.88
25232;BME280;13176;51.140;6.290;2022-08-19T08:23:01;100726.88;;;24.03;64.24
25232;BME280;13176;51.140;6.290;2022-08-19T08:25:46;100765.41;;;24.36;64.41
25232;BME280;13176;51.140;6.290;2022-08-19T08:28:15;100773.88;;;24.55;63.56
25232;BME280;13176;51.140;6.290;2022-08-19T08:30:43;100803.78;;;24.72;63.75
25232;BME280;13176;51.140;6.290;2022-08-19T08:33:11;100728.91;;;24.36;61.89
25232;BME280;13176;51.140;6.290;2022-08-19T08:35:40;100784.97;;;24.61;60.93
25232;BME280;13176;51.140;6.290;2022-08-19T08:38:11;100719.41;;;24.20;60.44
25232;BME280;13176;51.140;6.290;2022-08-19T08:43:19;100773.22;;;24.51;58.84
25232;BME280;13176;51.140;6.290;2022-08-19T08:45:56;100798.66;;;24.69;59.35
25232;BME280;13176;51.140;6.290;2022-08-19T08:48:44;100800.78;;;24.77;59.30
25232;BME280;13176;51.140;6.290;2022-08-19T08:51:26;100730.72;;;24.48;59.50
25232;BME280;13176;51.140;6.290;2022-08-19T08:54:04;100811.63;;;24.99;59.30
25232;BME280;13176;51.140;6.290;2022-08-19T08:56:38;100744.19;;;24.59;59.18
25232;BME280;13176;51.140;6.290;2022-08-19T08:59:07;100765.94;;;24.78;59.09
25232;BME280;13176;51.140;6.290;2022-08-19T09:01:36;100748.88;;;24.68;58.67
25232;BME280;13176;51.140;6.290;2022-08-19T09:04:05;100756.31;;;24.88;57.96
25232;BME280;13176;51.140;6.290;2022-08-19T09:06:38;100750.00;;;24.89;58.22
25232;BME280;13176;51.140;6.290;2022-08-19T09:11:55;100797.22;;;25.49;55.77
25232;BME280;13176;51.140;6.290;2022-08-19T09:14:45;100789.81;;;25.30;55.16
25232;BME280;13176;51.140;6.290;2022-08-19T09:17:19;100787.78;;;25.56;55.72
25232;BME280;13176;51.140;6.290;2022-08-19T09:22:20;100758.59;;;25.77;56.12
25232;BME280;13176;51.140;6.290;2022-08-19T09:24:53;100777.44;;;25.99;56.51
25232;BME280;13176;51.140;6.290;2022-08-19T09:27:20;100790.63;;;26.13;55.77
25232;BME280;13176;51.140;6.290;2022-08-19T09:30:12;100734.34;;;25.91;55.23
25232;BME280;13176;51.140;6.290;2022-08-19T09:32:41;100805.63;;;25.92;55.04
25232;BME280;13176;51.140;6.290;2022-08-19T09:35:09;100787.56;;;26.06;55.17
25232;BME280;13176;51.140;6.290;2022-08-19T09:37:37;100780.75;;;26.02;55.07
25232;BME280;13176;51.140;6.290;2022-08-19T09:40:06;100764.28;;;25.85;55.06
25232;BME280;13176;51.140;6.290;2022-08-19T09:42:37;100729.00;;;25.80;54.50
25232;BME280;13176;51.140;6.290;2022-08-19T09:45:16;100791.75;;;26.21;55.03
25232;BME280;13176;51.140;6.290;2022-08-19T09:47:43;100735.88;;;26.06;54.28
25232;BME280;13176;51.140;6.290;2022-08-19T09:50:13;100794.06;;;26.26;54.70
25232;BME280;13176;51.140;6.290;2022-08-19T09:52:42;100783.69;;;26.45;54.16
25232;BME280;13176;51.140;6.290;2022-08-19T09:55:24;100788.09;;;26.57;53.17
25232;BME280;13176;51.140;6.290;2022-08-19T09:57:59;100728.56;;;26.53;52.90
25232;BME280;13176;51.140;6.290;2022-08-19T10:00:26;100779.84;;;26.92;52.67
25232;BME280;13176;51.140;6.290;2022-08-19T10:02:53;100706.28;;;26.85;52.89
25232;BME280;13176;51.140;6.290;2022-08-19T10:05:19;100797.84;;;27.34;51.90
25232;BME280;13176;51.140;6.290;2022-08-19T10:08:08;100789.69;;;27.36;51.90
25232;BME280;13176;51.140;6.290;2022-08-19T10:10:43;100713.81;;;26.69;52.42
25232;BME280;13176;51.140;6.290;2022-08-19T10:13:14;100719.91;;;26.61;51.74
25232;BME280;13176;51.140;6.290;2022-08-19T10:15:40;100734.75;;;26.65;52.46
25232;BME280;13176;51.140;6.290;2022-08-19T10:18:14;100733.78;;;26.66;52.01
25232;BME280;13176;51.140;6.290;2022-08-19T10:20:46;100716.22;;;26.40;52.23
25232;BME280;13176;51.140;6.290;2022-08-19T10:23:18;100794.44;;;26.88;52.40
25232;BME280;13176;51.140;6.290;2022-08-19T10:25:46;100781.44;;;27.06;52.03
25232;BME280;13176;51.140;6.290;2022-08-19T10:28:13;100657.78;;;26.34;51.87
25232;BME280;13176;51.140;6.290;2022-08-19T10:30:40;100717.59;;;26.89;51.50
25232;BME280;13176;51.140;6.290;2022-08-19T10:33:07;100719.41;;;27.21;50.73
25232;BME280;13176;51.140;6.290;2022-08-19T10:35:37;100714.22;;;27.40;50.02
25232;BME280;13176;51.140;6.290;2022-08-19T10:38:23;100738.59;;;27.37;49.96
25232;BME280;13176;51.140;6.290;2022-08-19T10:40:57;100623.72;;;26.79;49.52
25232;BME280;13176;51.140;6.290;2022-08-19T10:43:24;100673.81;;;26.99;50.38
25232;BME280;13176;51.140;6.290;2022-08-19T10:45:54;100760.00;;;27.59;49.90
25232;BME280;13176;51.140;6.290;2022-08-19T10:48:22;100667.75;;;27.19;48.96
25232;BME280;13176;51.140;6.290;2022-08-19T10:50:49;100692.81;;;27.29;48.51
25232;BME280;13176;51.140;6.290;2022-08-19T10:53:34;100665.69;;;27.01;48.07
25232;BME280;13176;51.140;6.290;2022-08-19T10:56:01;100745.78;;;27.48;47.88
25232;BME280;13176;51.140;6.290;2022-08-19T10:58:46;100762.06;;;27.56;48.28
25232;BME280;13176;51.140;6.290;2022-08-19T11:01:12;100664.19;;;27.50;48.39
25232;BME280;13176;51.140;6.290;2022-08-19T11:03:39;100662.75;;;27.46;47.23
25232;BME280;13176;51.140;6.290;2022-08-19T11:06:08;100762.19;;;28.17;45.49
25232;BME280;13176;51.140;6.290;2022-08-19T11:08:35;100692.81;;;27.92;45.17
25232;BME280;13176;51.140;6.290;2022-08-19T11:11:06;100705.97;;;28.15;44.88
25232;BME280;13176;51.140;6.290;2022-08-19T11:13:36;100701.75;;;28.43;43.61
25232;BME280;13176;51.140;6.290;2022-08-19T11:16:23;100739.47;;;28.62;44.21
25232;BME280;13176;51.140;6.290;2022-08-19T11:18:54;100742.50;;;28.78;43.78
25232;BME280;13176;51.140;6.290;2022-08-19T11:21:30;100752.72;;;28.84;44.18
25232;BME280;13176;51.140;6.290;2022-08-19T11:24:00;100673.34;;;27.99;43.62
25232;BME280;13176;51.140;6.290;2022-08-19T11:26:29;100653.00;;;27.97;43.21
25232;BME280;13176;51.140;6.290;2022-08-19T11:28:58;100683.00;;;28.02;43.74
25232;BME280;13176;51.140;6.290;2022-08-19T11:31:28;100668.38;;;28.15;43.40
25232;BME280;13176;51.140;6.290;2022-08-19T11:33:58;100752.38;;;28.68;44.02
25232;BME280;13176;51.140;6.290;2022-08-19T11:36:31;100682.06;;;28.33;44.87
25232;BME280;13176;51.140;6.290;2022-08-19T11:38:59;100701.66;;;28.54;43.92
25232;BME280;13176;51.140;6.290;2022-08-19T11:41:26;100749.34;;;28.61;43.85
25232;BME280;13176;51.140;6.290;2022-08-19T11:43:53;100693.38;;;28.36;42.13
25232;BME280;13176;51.140;6.290;2022-08-19T11:46:23;100678.06;;;28.27;42.79
25232;BME280;13176;51.140;6.290;2022-08-19T11:48:50;100721.84;;;28.69;43.09
25232;BME280;13176;51.140;6.290;2022-08-19T11:51:20;100670.88;;;28.58;43.45
25232;BME280;13176;51.140;6.290;2022-08-19T11:53:52;100740.09;;;29.05;43.18
25232;BME280;13176;51.140;6.290;2022-08-19T11:56:24;100622.75;;;28.25;43.39
25232;BME280;13176;51.140;6.290;2022-08-19T11:58:53;100630.63;;;28.37;43.29
25232;BME280;13176;51.140;6.290;2022-08-19T12:01:22;100726.50;;;29.45;43.41
25232;BME280;13176;51.140;6.290;2022-08-19T12:03:53;100693.59;;;29.32;41.60
25232;BME280;13176;51.140;6.290;2022-08-19T12:06:31;100627.38;;;28.83;41.48
25232;BME280;13176;51.140;6.290;2022-08-19T12:09:04;100732.25;;;29.31;41.44
25232;BME280;13176;51.140;6.290;2022-08-19T12:11:34;100612.63;;;28.68;42.10
25232;BME280;13176;51.140;6.290;2022-08-19T12:14:08;100559.28;;;28.54;41.27
25232;BME280;13176;51.140;6.290;2022-08-19T12:17:04;100616.69;;;28.92;41.73
25232;BME280;13176;51.140;6.290;2022-08-19T12:19:33;100622.84;;;28.74;38.39
25232;BME280;13176;51.140;6.290;2022-08-19T12:22:00;100726.66;;;29.63;37.68
25232;BME280;13176;51.140;6.290;2022-08-19T12:24:47;100643.88;;;29.17;36.98
25232;BME280;13176;51.140;6.290;2022-08-19T12:27:17;100636.22;;;29.22;37.98
25232;BME280;13176;51.140;6.290;2022-08-19T12:30:05;100536.53;;;28.67;38.87
25232;BME280;13176;51.140;6.290;2022-08-19T12:32:33;100713.88;;;29.93;37.68
25232;BME280;13176;51.140;6.290;2022-08-19T12:37:48;100635.41;;;29.69;36.78
25232;BME280;13176;51.140;6.290;2022-08-19T12:40:22;100550.31;;;29.49;36.75
25232;BME280;13176;51.140;6.290;2022-08-19T12:42:51;100604.47;;;30.11;35.66
25232;BME280;13176;51.140;6.290;2022-08-19T12:45:18;100635.41;;;29.98;35.64
25232;BME280;13176;51.140;6.290;2022-08-19T12:47:46;100708.97;;;30.53;36.00
25232;BME280;13176;51.140;6.290;2022-08-19T12:50:14;100707.81;;;30.65;36.17
25232;BME280;13176;51.140;6.290;2022-08-19T12:52:41;100684.50;;;30.74;36.37
25232;BME280;13176;51.140;6.290;2022-08-19T12:55:09;100687.72;;;30.41;35.98
25232;BME280;13176;51.140;6.290;2022-08-19T12:57:37;100679.91;;;30.57;36.26
25232;BME280;13176;51.140;6.290;2022-08-19T13:00:05;100697.91;;;30.93;34.88
25232;BME280;13176;51.140;6.290;2022-08-19T13:02:36;100686.50;;;30.72;34.68
25232;BME280;13176;51.140;6.290;2022-08-19T13:05:07;100698.44;;;30.60;33.73
25232;BME280;13176;51.140;6.290;2022-08-19T13:07:35;100677.63;;;30.52;34.03
25232;BME280;13176;51.140;6.290;2022-08-19T13:10:02;100534.81;;;29.70;35.02
25232;BME280;13176;51.140;6.290;2022-08-19T13:12:29;100635.38;;;29.88;34.12
25232;BME280;13176;51.140;6.290;2022-08-19T13:14:56;100588.88;;;29.86;34.70
25232;BME280;13176;51.140;6.290;2022-08-19T13:17:23;100657.13;;;30.33;35.18
25232;BME280;13176;51.140;6.290;2022-08-19T13:19:50;100683.03;;;30.43;32.45
25232;BME280;13176;51.140;6.290;2022-08-19T13:22:17;100678.91;;;30.58;32.06
25232;BME280;13176;51.140;6.290;2022-08-19T13:24:44;100609.47;;;30.33;32.88
25232;BME280;13176;51.140;6.290;2022-08-19T13:27:13;100703.19;;;30.85;34.26
25232;BME280;13176;51.140;6.290;2022-08-19T13:29:40;100659.44;;;30.91;34.47